createdAt,value
2019-03-24T16:39:29.522Z,100381.02
2019-03-24T16:42:00.857Z,100381.74
2019-03-24T16:44:32.854Z,100379.67
2019-03-24T16:47:04.089Z,100386.97
2019-03-24T16:49:35.441Z,100387.77
2019-03-24T16:52:06.782Z,100393.58
2019-03-24T16:54:38.159Z,100393.89
2019-03-24T16:57:09.509Z,100392.48
2019-03-24T16:59:40.793Z,100396.38
2019-03-24T17:02:12.434Z,100400.68
2019-03-24T17:04:43.642Z,100402.23
2019-03-24T17:07:15.239Z,100410.42
2019-03-24T17:09:46.393Z,100408.66
2019-03-24T17:12:18.323Z,100396.30
2019-03-24T17:14:49.668Z,100400.90
2019-03-24T17:17:23.045Z,100405.14
2019-03-24T17:19:54.368Z,100399.00
2019-03-24T17:22:25.726Z,100397.09
2019-03-24T17:24:57.529Z,100396.95
2019-03-24T17:27:29.921Z,100396.87
2019-03-24T17:30:05.218Z,100399.34
2019-03-24T17:32:38.124Z,100400.25
2019-03-24T17:35:12.544Z,100401.77
2019-03-24T17:37:44.324Z,100392.92
2019-03-24T17:40:17.921Z,100390.72
2019-03-24T17:42:54.000Z,100388.02
2019-03-24T17:45:27.756Z,100387.08
2019-03-24T17:47:59.062Z,100384.31
2019-03-24T17:50:30.434Z,100392.41
2019-03-24T17:53:06.676Z,100394.33
2019-03-24T17:55:38.332Z,100399.72
2019-03-24T17:58:09.617Z,100389.69
2019-03-24T18:00:43.835Z,100394.74
2019-03-24T18:03:15.141Z,100397.08
2019-03-24T18:05:47.474Z,100394.93
2019-03-24T18:08:20.168Z,100387.25
2019-03-24T18:10:51.626Z,100394.81
2019-03-24T18:13:22.960Z,100398.56
2019-03-24T18:15:54.196Z,100391.86
2019-03-24T18:18:25.341Z,100390.55
2019-03-24T18:20:56.581Z,100394.86
2019-03-24T18:23:30.182Z,100398.62
2019-03-24T18:26:01.488Z,100397.36
2019-03-24T18:28:32.684Z,100397.77
2019-03-24T18:31:04.193Z,100394.69
2019-03-24T18:33:35.552Z,100394.17
2019-03-24T18:36:08.040Z,100391.95
2019-03-24T18:38:39.963Z,100389.77
2019-03-24T18:41:12.041Z,100390.66
2019-03-24T18:43:43.637Z,100379.82
2019-03-24T18:46:16.636Z,100378.41
2019-03-24T18:48:48.432Z,100378.41
2019-03-24T18:51:20.800Z,100373.59
2019-03-24T18:53:53.603Z,100371.53
2019-03-24T18:56:26.538Z,100371.63
2019-03-24T18:58:57.910Z,100378.14
2019-03-24T19:01:30.327Z,100378.45
2019-03-24T19:04:03.884Z,100383.42
2019-03-24T19:06:35.391Z,100375.78
2019-03-24T19:09:09.541Z,100376.05
2019-03-24T19:11:40.897Z,100380.28
2019-03-24T19:14:12.435Z,100385.83
2019-03-24T19:16:45.250Z,100388.56
2019-03-24T19:19:16.592Z,100384.48
2019-03-24T19:21:48.281Z,100380.94
2019-03-24T19:24:19.486Z,100379.91
2019-03-24T19:26:50.799Z,100380.88
2019-03-24T19:29:21.945Z,100371.35
2019-03-24T19:31:55.010Z,100375.78
2019-03-24T19:34:26.414Z,100373.30
2019-03-24T19:36:57.819Z,100373.78
2019-03-24T19:39:29.323Z,100366.08
2019-03-24T19:42:00.700Z,100364.38
2019-03-24T19:44:32.415Z,100368.41
2019-03-24T19:47:03.647Z,100371.22
2019-03-24T19:49:35.450Z,100371.31
2019-03-24T19:52:07.209Z,100374.88
2019-03-24T19:54:40.736Z,100374.03
2019-03-24T19:57:12.151Z,100370.52
2019-03-24T19:59:44.804Z,100381.73
2019-03-24T20:02:15.934Z,100379.44
2019-03-24T20:04:47.267Z,100383.94
2019-03-24T20:07:18.413Z,100375.91
2019-03-24T20:09:49.772Z,100381.78
2019-03-24T20:12:21.062Z,100379.09
2019-03-24T20:14:52.408Z,100372.96
2019-03-24T20:17:23.689Z,100371.66
2019-03-24T20:19:54.961Z,100367.84
2019-03-24T20:22:26.125Z,100368.92
2019-03-24T20:24:57.500Z,100371.69
2019-03-24T20:27:28.910Z,100361.38
2019-03-24T20:30:00.424Z,100367.38
2019-03-24T20:32:31.711Z,100368.98
2019-03-24T20:35:02.975Z,100369.32
2019-03-24T20:37:34.317Z,100363.13
2019-03-24T20:40:06.493Z,100370.44
2019-03-24T20:42:37.887Z,100373.02
2019-03-24T20:45:09.741Z,100369.90
2019-03-24T20:47:42.582Z,100368.20
2019-03-24T20:50:13.758Z,100370.88
2019-03-24T20:52:45.078Z,100368.02
2019-03-24T20:55:16.442Z,100368.11
2019-03-24T20:57:47.740Z,100370.31
2019-03-24T21:00:22.139Z,100375.84
2019-03-24T21:02:53.387Z,100372.72
2019-03-24T21:05:24.683Z,100372.06
2019-03-24T21:07:55.948Z,100372.66
2019-03-24T21:10:27.239Z,100374.28
2019-03-24T21:13:00.200Z,100372.89
2019-03-24T21:15:31.575Z,100375.98
2019-03-24T21:18:04.415Z,100373.28
2019-03-24T21:20:35.807Z,100374.66
